Time;durP1;ratioP1;P1;durP2;ratioP2;P2;SDS_P1;SDS_P2;PMS_P1;PMS_P2;Temp;Humidity;BMP_temperature;BMP_pressure;BME280_temperature;BME280_humidity;BME280_pressure;Samples;Min_cycle;Max_cycle;Signal;HPM_P1;HPM_P2
2022/12/20 00:02:33;;;;;;;3.92;2.50;;;7.80;99.90;;;;;;10523377;28;20034;-68
2022/12/20 00:07:33;;;;;;;4.95;2.92;;;7.80;99.90;;;;;;10522836;28;20357;-68
2022/12/20 00:12:34;;;;;;;5.40;3.13;;;7.80;99.90;;;;;;10520897;28;20043;-68
2022/12/20 00:17:35;;;;;;;4.00;2.53;;;8.00;99.90;;;;;;10523035;28;20020;-68
2022/12/20 00:22:35;;;;;;;4.35;2.78;;;7.80;99.90;;;;;;10518982;28;20701;-68
2022/12/20 00:27:36;;;;;;;6.00;2.92;;;7.90;99.90;;;;;;10519391;28;20228;-69
2022/12/20 00:32:37;;;;;;;4.68;2.95;;;7.90;99.90;;;;;;10523121;28;20035;-68
2022/12/20 00:37:38;;;;;;;5.85;2.75;;;7.90;99.90;;;;;;10516929;28;20024;-68
2022/12/20 00:42:38;;;;;;;4.82;2.65;;;7.90;99.90;;;;;;10518335;28;20028;-69
2022/12/20 00:47:39;;;;;;;3.47;2.22;;;7.90;99.90;;;;;;10521215;28;20031;-69
2022/12/20 00:52:39;;;;;;;5.40;2.67;;;7.90;99.90;;;;;;10523417;28;20043;-68
2022/12/20 00:57:40;;;;;;;5.10;2.45;;;7.90;99.90;;;;;;10517444;28;21078;-68
2022/12/20 01:02:40;;;;;;;4.10;2.70;;;7.90;99.90;;;;;;10518983;28;20468;-68
2022/12/20 01:07:41;;;;;;;4.05;2.60;;;7.90;99.90;;;;;;10517992;28;20028;-68
2022/12/20 01:12:42;;;;;;;4.82;3.00;;;7.90;99.90;;;;;;10519090;28;20068;-68
2022/12/20 01:17:42;;;;;;;3.92;2.67;;;7.90;99.90;;;;;;10517625;28;20039;-69
2022/12/20 01:22:43;;;;;;;4.53;2.58;;;7.90;99.90;;;;;;11783688;22;20504;-69
2022/12/20 01:27:43;;;;;;;4.63;2.55;;;7.90;99.90;;;;;;10470683;28;20133;-69
2022/12/20 01:32:44;;;;;;;4.78;3.00;;;7.90;99.90;;;;;;10470830;28;20691;-68
2022/12/20 01:37:45;;;;;;;4.30;2.25;;;7.90;99.90;;;;;;10468326;28;20043;-69
2022/12/20 01:42:45;;;;;;;4.63;2.50;;;8.00;99.90;;;;;;10470014;28;20060;-69
2022/12/20 01:47:46;;;;;;;4.60;2.45;;;8.00;99.90;;;;;;10477353;28;20024;-69
2022/12/20 01:52:47;;;;;;;3.10;2.35;;;8.00;99.90;;;;;;10469846;28;20494;-69
2022/12/20 01:57:56;;;;;;;3.95;2.20;;;8.00;99.90;;;;;;10450528;28;20170;-69
2022/12/20 02:03:05;;;;;;;3.35;2.55;;;8.00;99.90;;;;;;10470647;28;20400;-69
2022/12/20 02:08:06;;;;;;;3.65;2.08;;;8.00;99.90;;;;;;10454895;28;20112;-68
2022/12/20 02:13:17;;;;;;;5.72;2.75;;;8.00;99.90;;;;;;10467633;28;20360;-69
2022/12/20 02:18:23;;;;;;;3.30;2.38;;;8.00;99.90;;;;;;10471183;28;20037;-69
2022/12/20 02:23:48;;;;;;;3.15;2.25;;;8.00;99.90;;;;;;10471997;28;20055;-68
2022/12/20 02:29:19;;;;;;;4.55;2.28;;;8.00;99.90;;;;;;10467823;28;20033;-68
2022/12/20 02:34:23;;;;;;;3.05;2.00;;;8.00;99.90;;;;;;10470650;28;20029;-68
2022/12/20 02:39:27;;;;;;;4.95;2.40;;;8.00;99.90;;;;;;10469052;28;20020;-68
2022/12/20 02:49:53;;;;;;;3.65;2.00;;;8.00;99.90;;;;;;10463369;28;20045;-68
2022/12/20 02:54:54;;;;;;;3.40;2.50;;;8.10;99.90;;;;;;10474787;28;20104;-69
2022/12/20 03:00:08;;;;;;;3.25;1.90;;;8.10;99.90;;;;;;10477040;28;20020;-69
2022/12/20 03:05:09;;;;;;;3.70;2.03;;;8.10;99.90;;;;;;10475993;28;20473;-68
2022/12/20 03:10:10;;;;;;;4.38;2.50;;;8.10;99.90;;;;;;10473702;28;20025;-68
2022/12/20 03:15:11;;;;;;;3.03;1.80;;;8.10;99.90;;;;;;10473180;28;20012;-69
2022/12/20 03:20:12;;;;;;;3.42;1.98;;;8.10;99.90;;;;;;10473746;28;20059;-69
2022/12/20 03:25:13;;;;;;;4.45;2.33;;;8.10;99.90;;;;;;10477787;28;20031;-69
2022/12/20 03:30:14;;;;;;;3.22;2.20;;;8.10;99.90;;;;;;10476834;28;20245;-69
2022/12/20 03:35:15;;;;;;;5.13;2.30;;;8.20;99.90;;;;;;10457405;28;20020;-69
2022/12/20 03:40:15;;;;;;;3.92;2.22;;;8.20;99.90;;;;;;10478820;28;20039;-69
2022/12/20 03:45:17;;;;;;;4.53;2.00;;;8.20;99.90;;;;;;10477189;28;20111;-69
2022/12/20 03:50:17;;;;;;;3.88;2.35;;;8.20;99.90;;;;;;10470844;28;20095;-69
2022/12/20 03:55:18;;;;;;;4.47;2.08;;;8.20;99.90;;;;;;10472968;28;20093;-69
2022/12/20 04:00:19;;;;;;;3.72;2.40;;;8.20;99.90;;;;;;10458707;28;20024;-69
2022/12/20 04:05:20;;;;;;;3.78;2.10;;;8.20;99.90;;;;;;10475091;28;20024;-69
2022/12/20 04:10:20;;;;;;;4.53;2.10;;;8.20;99.90;;;;;;10475647;28;20401;-69
2022/12/20 04:15:21;;;;;;;5.03;2.60;;;8.20;99.90;;;;;;10471826;28;20036;-69
2022/12/20 04:20:22;;;;;;;4.00;2.45;;;8.30;99.90;;;;;;10471100;28;20025;-69
2022/12/20 04:25:22;;;;;;;3.42;2.15;;;8.30;99.90;;;;;;10473162;28;20307;-68
2022/12/20 04:30:23;;;;;;;6.30;2.40;;;8.30;99.90;;;;;;10479488;28;20028;-68
2022/12/20 04:35:23;;;;;;;5.35;2.20;;;8.30;99.90;;;;;;10477418;28;20385;-68
2022/12/20 04:40:24;;;;;;;3.35;2.40;;;8.30;99.90;;;;;;10473670;28;20523;-69
2022/12/20 04:45:25;;;;;;;3.85;2.30;;;8.30;99.90;;;;;;10474285;28;20021;-69
2022/12/20 04:50:25;;;;;;;5.88;2.63;;;8.30;99.90;;;;;;10473963;28;20035;-68
2022/12/20 04:55:26;;;;;;;4.28;2.25;;;8.30;99.90;;;;;;10472069;28;20029;-69
2022/12/20 05:00:26;;;;;;;2.30;1.90;;;8.30;99.90;;;;;;10473723;28;20020;-69
2022/12/20 05:05:27;;;;;;;3.97;2.30;;;8.30;99.90;;;;;;10482633;28;20027;-68
2022/12/20 05:10:28;;;;;;;3.70;2.15;;;8.40;99.90;;;;;;10484937;28;20043;-69
2022/12/20 05:15:29;;;;;;;4.93;2.40;;;8.40;99.90;;;;;;10483547;28;20024;-69
2022/12/20 05:20:30;;;;;;;4.38;2.63;;;8.40;99.90;;;;;;10473678;28;20033;-68
2022/12/20 05:31:10;;;;;;;4.22;2.30;;;8.40;99.90;;;;;;10370558;28;20076;-69
2022/12/20 05:36:10;;;;;;;4.85;2.20;;;8.40;99.90;;;;;;10450533;28;20058;-68
2022/12/20 05:41:11;;;;;;;3.13;2.20;;;8.40;99.90;;;;;;10473584;28;20025;-69
2022/12/20 05:46:12;;;;;;;3.40;1.90;;;8.40;99.90;;;;;;10460434;28;20057;-69
2022/12/20 05:51:13;;;;;;;3.95;2.10;;;8.50;99.90;;;;;;10470633;28;20136;-69
2022/12/20 05:56:13;;;;;;;3.55;2.20;;;8.40;99.90;;;;;;10469604;28;20013;-69
2022/12/20 06:01:14;;;;;;;3.90;2.55;;;8.80;99.90;;;;;;10473365;28;20535;-69
2022/12/20 06:06:14;;;;;;;4.07;2.10;;;8.50;99.90;;;;;;10470692;28;20099;-68
2022/12/20 06:11:15;;;;;;;3.60;2.40;;;8.50;99.90;;;;;;10468627;28;20043;-68
2022/12/20 06:16:18;;;;;;;5.15;2.20;;;8.50;99.90;;;;;;10470766;28;20021;-69
2022/12/20 06:21:19;;;;;;;3.45;1.95;;;8.50;99.90;;;;;;10470942;28;20032;-68
2022/12/20 06:26:22;;;;;;;3.45;2.10;;;8.50;99.90;;;;;;10469063;28;20013;-69
2022/12/20 06:31:22;;;;;;;5.47;2.13;;;8.50;99.90;;;;;;10481124;28;20531;-68
2022/12/20 06:36:23;;;;;;;4.63;2.20;;;8.60;99.90;;;;;;10474234;28;20026;-69
2022/12/20 06:41:24;;;;;;;4.47;2.83;;;8.50;99.90;;;;;;10479284;28;20119;-69
2022/12/20 06:46:24;;;;;;;4.63;2.25;;;8.60;99.90;;;;;;10478657;28;20368;-69
2022/12/20 06:51:25;;;;;;;3.15;2.10;;;8.60;99.90;;;;;;10475468;28;20312;-68
2022/12/20 06:56:26;;;;;;;3.53;2.00;;;8.60;99.90;;;;;;10476944;28;20476;-68
2022/12/20 07:01:26;;;;;;;5.03;3.00;;;8.60;99.90;;;;;;10470037;28;20043;-67
2022/12/20 07:06:28;;;;;;;5.05;2.40;;;8.60;99.90;;;;;;10472680;28;20062;-68
2022/12/20 07:11:28;;;;;;;3.80;2.40;;;8.70;99.90;;;;;;10477773;28;20078;-68
2022/12/20 07:16:31;;;;;;;3.78;2.28;;;8.70;99.90;;;;;;10481597;28;20017;-67
2022/12/20 07:21:31;;;;;;;3.55;2.40;;;8.70;99.90;;;;;;10477218;28;20070;-67
2022/12/20 07:26:32;;;;;;;6.82;2.30;;;8.70;99.90;;;;;;10476335;28;20426;-68
2022/12/20 07:31:33;;;;;;;3.95;2.28;;;8.70;99.90;;;;;;10473694;28;20037;-67
2022/12/20 07:36:34;;;;;;;4.78;2.60;;;8.70;99.90;;;;;;10475732;28;20025;-68
2022/12/20 07:41:35;;;;;;;3.63;2.28;;;8.70;99.90;;;;;;10472541;28;20028;-68
2022/12/20 07:46:35;;;;;;;4.70;2.40;;;8.70;99.90;;;;;;10475152;28;20027;-67
2022/12/20 07:51:41;;;;;;;3.65;2.45;;;8.70;99.90;;;;;;10472792;28;20095;-68
2022/12/20 07:56:45;;;;;;;7.18;2.50;;;8.70;99.90;;;;;;10476340;28;20049;-68
2022/12/20 08:01:47;;;;;;;5.35;2.55;;;8.80;99.90;;;;;;10478751;28;20027;-68
2022/12/20 08:06:49;;;;;;;4.38;2.65;;;8.80;99.90;;;;;;10475683;28;20444;-67
2022/12/20 08:11:51;;;;;;;2.90;1.92;;;8.80;99.90;;;;;;10473403;28;20040;-67
2022/12/20 08:16:51;;;;;;;4.32;2.22;;;8.80;99.90;;;;;;10475267;28;20039;-67
2022/12/20 08:21:52;;;;;;;3.70;2.30;;;8.80;99.90;;;;;;10476766;28;20039;-67
2022/12/20 08:26:52;;;;;;;5.18;2.47;;;8.80;99.90;;;;;;10474398;28;20021;-67
2022/12/20 08:31:53;;;;;;;3.97;2.15;;;8.80;99.90;;;;;;10473585;28;20037;-67
2022/12/20 08:36:54;;;;;;;3.90;2.40;;;8.80;99.90;;;;;;10471775;28;21256;-67
2022/12/20 08:41:54;;;;;;;4.25;2.05;;;8.80;99.90;;;;;;10477093;28;20028;-67
2022/12/20 08:46:55;;;;;;;5.97;2.13;;;8.90;99.90;;;;;;10473309;28;20432;-67
2022/12/20 08:51:56;;;;;;;3.80;2.20;;;8.90;99.90;;;;;;10471600;28;20226;-67
2022/12/20 08:56:57;;;;;;;3.38;1.85;;;8.90;99.90;;;;;;10479612;28;20083;-68
2022/12/20 09:01:57;;;;;;;3.10;2.00;;;8.90;99.90;;;;;;10476229;28;20132;-67
2022/12/20 09:06:58;;;;;;;3.33;2.20;;;8.90;99.90;;;;;;10471834;28;20108;-68
2022/12/20 09:11:59;;;;;;;4.53;2.30;;;8.90;99.90;;;;;;10473674;28;20123;-68
2022/12/20 09:16:59;;;;;;;4.95;2.20;;;8.90;99.90;;;;;;10472647;28;20025;-68
2022/12/20 09:22:00;;;;;;;4.05;2.30;;;8.90;99.90;;;;;;10470699;28;20039;-68
2022/12/20 09:27:01;;;;;;;2.28;1.73;;;8.90;99.90;;;;;;10473748;28;20039;-68
2022/12/20 09:32:01;;;;;;;4.35;2.30;;;8.90;99.90;;;;;;10484046;28;20503;-68
2022/12/20 09:37:02;;;;;;;3.53;2.17;;;8.90;99.90;;;;;;10481095;28;20009;-67
2022/12/20 09:42:08;;;;;;;5.45;2.10;;;8.90;99.90;;;;;;10486282;28;20167;-68
2022/12/20 09:47:16;;;;;;;3.67;2.08;;;9.00;99.90;;;;;;10476029;28;20421;-68
2022/12/20 09:52:34;;;;;;;4.20;2.20;;;9.00;99.90;;;;;;10480194;28;20187;-67
2022/12/20 09:58:00;;;;;;;6.10;2.38;;;9.00;99.90;;;;;;10460186;28;20023;-68
2022/12/20 10:03:04;;;;;;;3.38;2.10;;;9.00;99.90;;;;;;10457551;28;20033;-69
2022/12/20 10:08:22;;;;;;;5.10;1.95;;;9.00;99.90;;;;;;10464991;28;20732;-67
2022/12/20 10:13:35;;;;;;;4.10;2.10;;;9.00;99.90;;;;;;10463389;28;20044;-68
2022/12/20 10:19:16;;;;;;;5.47;2.35;;;9.00;99.90;;;;;;10454668;28;20349;-67
2022/12/20 10:24:29;;;;;;;2.50;1.80;;;9.00;99.90;;;;;;10473233;28;20032;-67
2022/12/20 10:29:30;;;;;;;4.07;2.15;;;9.00;99.90;;;;;;10477900;28;20049;-67
2022/12/20 10:34:30;;;;;;;3.70;1.67;;;9.00;99.90;;;;;;10472927;28;20170;-67
2022/12/20 10:39:45;;;;;;;3.28;1.92;;;9.00;99.90;;;;;;10475941;28;20043;-67
2022/12/20 10:44:46;;;;;;;3.58;2.08;;;9.00;99.90;;;;;;10477187;28;20027;-67
2022/12/20 10:49:47;;;;;;;3.65;1.92;;;9.00;99.90;;;;;;10474051;28;20078;-67
2022/12/20 10:54:47;;;;;;;4.25;2.00;;;9.00;99.90;;;;;;10479488;28;20024;-67
2022/12/20 10:59:56;;;;;;;2.80;2.00;;;9.00;99.90;;;;;;10482051;28;20020;-67
2022/12/20 11:05:19;;;;;;;5.75;2.10;;;9.00;99.90;;;;;;10478240;28;20025;-66
2022/12/20 11:10:26;;;;;;;3.38;1.95;;;9.10;99.90;;;;;;10480285;28;20040;-67
2022/12/20 11:15:35;;;;;;;4.78;1.80;;;9.10;99.90;;;;;;10483682;28;20074;-67
2022/12/20 11:20:38;;;;;;;;;;;9.10;99.90;;;;;;10485277;28;20040;-67
2022/12/20 11:25:51;;;;;;;3.92;1.90;;;9.10;99.90;;;;;;10488202;28;19919;-67
2022/12/20 11:31:15;;;;;;;7.35;2.15;;;9.10;99.90;;;;;;10482746;28;20488;-67
2022/12/20 11:36:23;;;;;;;4.68;1.92;;;9.20;99.90;;;;;;10477601;28;20029;-68
2022/12/20 11:41:44;;;;;;;5.07;1.90;;;9.20;99.90;;;;;;10488078;28;20496;-68
2022/12/20 11:47:07;;;;;;;2.88;1.85;;;9.20;99.90;;;;;;10485996;28;20048;-68
2022/12/20 11:52:14;;;;;;;3.78;1.92;;;9.10;99.90;;;;;;10485975;28;20036;-68
2022/12/20 11:57:58;;;;;;;3.65;1.73;;;9.10;99.90;;;;;;10483434;28;20059;-68
2022/12/20 12:03:03;;;;;;;3.65;1.95;;;9.10;99.90;;;;;;10442587;28;20119;-67
2022/12/20 12:08:09;;;;;;;3.13;1.90;;;9.10;99.90;;;;;;10482701;28;20016;-68
2022/12/20 12:13:30;;;;;;;2.78;1.67;;;9.10;99.90;;;;;;10481079;28;20044;-68
2022/12/20 12:18:33;;;;;;;3.60;1.80;;;9.10;99.90;;;;;;10478616;28;20095;-67
2022/12/20 12:23:40;;;;;;;4.80;2.20;;;9.10;99.90;;;;;;10479805;28;20158;-67
2022/12/20 12:28:41;;;;;;;2.40;1.63;;;9.10;99.90;;;;;;10485088;28;20032;-67
2022/12/20 12:33:49;;;;;;;2.55;1.75;;;9.10;99.90;;;;;;10484173;28;20515;-67
2022/12/20 12:39:38;;;;;;;4.00;1.70;;;9.10;99.90;;;;;;10480662;28;20033;-68
2022/12/20 12:44:48;;;;;;;2.88;1.70;;;9.10;99.90;;;;;;10482696;28;20392;-68
2022/12/20 12:49:51;;;;;;;3.47;1.90;;;9.10;99.90;;;;;;10482547;28;20021;-68
2022/12/20 12:54:52;;;;;;;2.42;1.45;;;9.10;99.90;;;;;;10480575;28;20028;-68
2022/12/20 12:59:53;;;;;;;3.85;2.08;;;9.20;99.90;;;;;;10479565;28;20476;-68
2022/12/20 13:05:05;;;;;;;3.13;1.60;;;9.20;99.90;;;;;;10480588;28;20373;-68
2022/12/20 13:10:09;;;;;;;3.17;1.67;;;9.20;99.90;;;;;;10479707;28;20059;-68
2022/12/20 13:15:18;;;;;;;2.45;1.90;;;9.20;99.90;;;;;;10482444;28;20060;-68
2022/12/20 13:20:21;;;;;;;4.18;1.65;;;9.20;99.90;;;;;;10481872;28;20443;-68
2022/12/20 13:25:28;;;;;;;2.90;1.80;;;9.20;99.90;;;;;;10486714;28;20036;-68
2022/12/20 13:30:29;;;;;;;3.45;1.55;;;9.20;99.90;;;;;;10473394;28;20025;-68
2022/12/20 13:35:39;;;;;;;3.10;1.60;;;9.20;99.90;;;;;;10480707;28;20012;-69
2022/12/20 13:40:59;;;;;;;2.60;1.83;;;9.20;99.90;;;;;;10463330;28;20058;-68
2022/12/20 13:46:05;;;;;;;2.72;1.80;;;9.20;99.90;;;;;;10470912;28;20468;-68
2022/12/20 13:51:07;;;;;;;2.60;1.80;;;9.20;99.90;;;;;;10471939;28;20239;-68
2022/12/20 13:56:26;;;;;;;2.83;1.65;;;9.20;99.90;;;;;;10495624;28;20350;-68
2022/12/20 14:01:27;;;;;;;2.95;2.00;;;9.20;99.90;;;;;;10486991;28;20089;-68
2022/12/20 14:06:28;;;;;;;4.25;1.70;;;9.20;99.90;;;;;;10478904;28;20520;-67
2022/12/20 14:11:29;;;;;;;3.33;1.67;;;9.20;99.90;;;;;;10480084;28;20050;-69
2022/12/20 14:16:31;;;;;;;5.68;1.73;;;9.30;99.90;;;;;;10481388;28;20021;-67
2022/12/20 14:21:41;;;;;;;4.13;1.90;;;9.30;99.90;;;;;;10476914;28;20662;-68
2022/12/20 14:26:46;;;;;;;5.32;2.10;;;9.30;99.90;;;;;;10465787;28;20048;-69
2022/12/20 14:31:47;;;;;;;2.55;1.95;;;9.30;99.90;;;;;;10471314;28;20649;-68
2022/12/20 14:36:49;;;;;;;2.17;1.52;;;9.30;99.90;;;;;;10481035;28;20028;-69
2022/12/20 14:42:08;;;;;;;2.67;1.75;;;9.30;99.90;;;;;;10482265;28;20147;-68
2022/12/20 14:47:26;;;;;;;2.55;1.83;;;9.30;99.90;;;;;;10465829;28;20067;-68
2022/12/20 14:52:41;;;;;;;3.45;2.10;;;9.30;99.90;;;;;;10459287;28;20525;-68
2022/12/20 14:57:44;;;;;;;2.25;1.95;;;9.30;99.90;;;;;;10458648;28;20103;-68
2022/12/20 15:02:48;;;;;;;3.03;2.03;;;9.30;99.90;;;;;;10460278;28;20029;-68
2022/12/20 15:07:48;;;;;;;2.85;1.98;;;9.30;99.90;;;;;;10458867;28;20500;-68
2022/12/20 15:12:49;;;;;;;4.43;2.25;;;9.30;99.90;;;;;;10457549;28;20051;-67
2022/12/20 15:17:50;;;;;;;3.67;2.28;;;9.30;99.90;;;;;;10459106;28;20692;-67
2022/12/20 15:22:51;;;;;;;2.70;2.00;;;9.30;99.90;;;;;;10459440;28;20142;-68
2022/12/20 15:27:51;;;;;;;2.70;1.90;;;9.30;99.90;;;;;;10470940;28;20077;-67
2022/12/20 15:32:52;;;;;;;3.08;2.15;;;9.30;99.90;;;;;;10473908;28;20036;-66
2022/12/20 15:37:53;;;;;;;3.53;1.98;;;9.30;99.90;;;;;;10467558;28;20130;-69
2022/12/20 15:42:53;;;;;;;3.03;2.10;;;9.30;99.90;;;;;;10445562;28;20056;-69
2022/12/20 15:47:54;;;;;;;2.53;1.80;;;9.30;99.90;;;;;;10468135;28;20021;-68
2022/12/20 15:52:54;;;;;;;2.30;1.90;;;9.40;99.90;;;;;;10450959;28;20052;-68
2022/12/20 15:57:55;;;;;;;2.80;2.17;;;9.40;99.90;;;;;;10474370;28;20017;-69
2022/12/20 16:02:58;;;;;;;2.53;1.88;;;9.40;99.90;;;;;;10480416;28;20063;-68
2022/12/20 16:07:58;;;;;;;2.63;1.88;;;9.40;99.90;;;;;;10481860;28;20055;-68
2022/12/20 16:12:59;;;;;;;3.13;2.08;;;9.40;99.90;;;;;;10463317;28;20136;-67
2022/12/20 16:17:59;;;;;;;1.80;1.58;;;9.40;99.90;;;;;;10483726;28;20032;-68
2022/12/20 16:23:02;;;;;;;2.47;1.92;;;9.40;99.90;;;;;;10486308;28;20095;-68
2022/12/20 16:28:03;;;;;;;4.93;2.20;;;9.30;99.90;;;;;;10468688;28;20044;-68
2022/12/20 16:33:05;;;;;;;4.53;2.33;;;9.40;99.90;;;;;;10462605;28;20123;-66
2022/12/20 16:38:06;;;;;;;3.83;2.47;;;9.40;99.90;;;;;;10463830;28;20456;-71
2022/12/20 16:43:13;;;;;;;3.92;2.63;;;9.50;99.90;;;;;;10471611;28;20093;-66
2022/12/20 16:48:13;;;;;;;4.30;2.88;;;9.50;99.90;;;;;;10465325;28;20021;-66
2022/12/20 16:53:14;;;;;;;5.53;3.40;;;9.50;99.90;;;;;;10473902;28;20085;-65
2022/12/20 16:58:15;;;;;;;6.57;4.05;;;9.60;99.90;;;;;;10482274;28;20149;-66
2022/12/20 17:03:15;;;;;;;7.28;4.35;;;9.60;99.90;;;;;;10468717;28;20017;-66
2022/12/20 17:08:16;;;;;;;6.53;4.18;;;9.60;99.90;;;;;;10469683;28;20040;-64
2022/12/20 17:13:17;;;;;;;7.57;4.45;;;9.60;99.90;;;;;;10459934;28;20550;-67
2022/12/20 17:18:18;;;;;;;7.82;3.97;;;9.60;99.90;;;;;;10471238;28;20066;-64
2022/12/20 17:23:18;;;;;;;8.40;4.30;;;9.60;99.90;;;;;;10467920;28;20047;-65
2022/12/20 17:28:22;;;;;;;6.00;3.92;;;9.70;99.90;;;;;;10480341;28;20494;-64
2022/12/20 17:33:22;;;;;;;6.43;3.95;;;9.80;99.90;;;;;;10473496;28;20055;-65
2022/12/20 17:38:23;;;;;;;6.57;4.38;;;9.80;99.90;;;;;;10496417;28;20017;-64
2022/12/20 17:43:24;;;;;;;6.25;4.07;;;9.80;99.90;;;;;;10482508;28;20047;-65
2022/12/20 17:48:25;;;;;;;7.78;4.30;;;9.80;99.90;;;;;;10477986;28;20009;-64
2022/12/20 17:53:26;;;;;;;6.18;3.60;;;9.80;99.90;;;;;;10485290;28;20468;-66
2022/12/20 17:58:27;;;;;;;6.95;3.97;;;9.80;99.90;;;;;;10479061;28;20025;-65
2022/12/20 18:03:28;;;;;;;7.95;4.22;;;9.80;99.90;;;;;;10483951;28;20029;-66
2022/12/20 18:08:28;;;;;;;8.07;5.00;;;9.80;99.90;;;;;;10480026;28;20043;-65
2022/12/20 18:13:29;;;;;;;6.78;4.50;;;9.80;99.90;;;;;;10478246;28;20040;-64
2022/12/20 18:18:30;;;;;;;6.38;4.00;;;9.90;99.90;;;;;;10475998;28;20104;-65
2022/12/20 18:23:32;;;;;;;9.40;4.68;;;9.90;99.90;;;;;;10482271;28;20468;-65
2022/12/20 18:28:33;;;;;;;8.75;4.53;;;9.80;99.90;;;;;;10480461;28;20448;-66
2022/12/20 18:33:34;;;;;;;6.60;4.10;;;9.80;99.90;;;;;;10474565;28;20136;-65
2022/12/20 18:38:35;;;;;;;6.72;4.53;;;9.80;99.90;;;;;;10478211;28;20018;-64
2022/12/20 18:43:36;;;;;;;7.90;3.78;;;9.80;99.90;;;;;;10480243;28;20021;-65
2022/12/20 18:48:37;;;;;;;6.85;4.45;;;9.90;99.90;;;;;;10460869;28;20488;-65
2022/12/20 18:53:40;;;;;;;7.05;4.53;;;9.90;99.90;;;;;;10477878;28;20369;-65
2022/12/20 18:58:42;;;;;;;6.95;4.60;;;9.90;99.90;;;;;;10471801;28;20013;-65
2022/12/20 19:03:43;;;;;;;7.13;3.85;;;9.90;99.90;;;;;;10472116;28;20361;-64
2022/12/20 19:08:44;;;;;;;6.43;4.28;;;9.90;99.90;;;;;;10472494;28;20085;-64
2022/12/20 19:13:45;;;;;;;7.93;3.78;;;9.90;99.90;;;;;;10469312;28;20128;-64
2022/12/20 19:18:46;;;;;;;7.65;4.05;;;9.90;99.90;;;;;;10477530;28;20042;-65
2022/12/20 19:23:50;;;;;;;7.97;4.00;;;9.90;99.90;;;;;;10471678;28;20043;-64
2022/12/20 19:28:50;;;;;;;7.20;4.22;;;9.90;99.90;;;;;;10458229;28;20023;-64
2022/12/20 19:33:54;;;;;;;6.50;4.13;;;9.90;99.90;;;;;;10464099;28;20032;-64
2022/12/20 19:38:57;;;;;;;7.07;4.53;;;9.80;99.90;;;;;;10468131;28;20021;-64
2022/12/20 19:43:58;;;;;;;8.27;4.18;;;9.80;99.90;;;;;;10488384;28;20107;-64
2022/12/20 19:48:59;;;;;;;5.75;3.70;;;9.80;99.90;;;;;;10479619;28;20067;-64
2022/12/20 19:54:00;;;;;;;6.63;4.18;;;9.80;99.90;;;;;;10478124;28;20032;-64
2022/12/20 19:59:01;;;;;;;9.23;4.50;;;9.80;99.90;;;;;;10477135;28;20012;-64
2022/12/20 20:04:03;;;;;;;8.95;4.93;;;9.90;99.90;;;;;;10463291;28;20344;-64
2022/12/20 20:09:04;;;;;;;7.85;4.20;;;9.80;99.90;;;;;;10482652;28;20061;-64
2022/12/20 20:14:08;;;;;;;7.57;4.63;;;9.80;99.90;;;;;;10473792;28;20132;-64
2022/12/20 20:19:08;;;;;;;8.45;4.82;;;9.80;99.90;;;;;;10481300;28;20051;-65
2022/12/20 20:24:09;;;;;;;7.15;4.10;;;9.80;99.90;;;;;;10485666;28;20059;-64
2022/12/20 20:29:10;;;;;;;7.38;4.28;;;9.80;99.90;;;;;;10472112;28;20488;-64
2022/12/20 20:34:11;;;;;;;7.32;4.43;;;9.80;99.90;;;;;;10463744;28;20531;-64
2022/12/20 20:39:11;;;;;;;7.65;4.05;;;9.80;99.90;;;;;;10468217;28;20401;-64
2022/12/20 20:44:12;;;;;;;7.55;4.28;;;9.80;99.90;;;;;;10478563;28;20024;-64
2022/12/20 20:49:12;;;;;;;5.43;3.70;;;9.70;99.90;;;;;;10470029;28;20036;-64
2022/12/20 20:54:14;;;;;;;6.50;3.83;;;9.80;99.90;;;;;;10464430;28;20024;-64
2022/12/20 20:59:14;;;;;;;7.35;4.38;;;9.70;99.90;;;;;;10471653;28;20419;-64
2022/12/20 21:04:15;;;;;;;6.88;4.43;;;9.80;99.90;;;;;;10472344;28;20017;-64
2022/12/20 21:09:15;;;;;;;7.47;4.05;;;9.70;99.90;;;;;;10466801;28;20028;-64
2022/12/20 21:14:16;;;;;;;7.88;4.07;;;9.70;99.90;;;;;;10458727;28;20029;-64
2022/12/20 21:19:17;;;;;;;6.50;4.20;;;9.70;99.90;;;;;;10449019;28;20349;-64
2022/12/20 21:24:17;;;;;;;6.18;3.80;;;9.70;99.90;;;;;;10467007;28;20027;-64
2022/12/20 21:29:18;;;;;;;8.32;4.72;;;9.80;99.90;;;;;;10466890;28;20455;-64
2022/12/20 21:34:19;;;;;;;11.10;5.18;;;9.70;99.90;;;;;;10456162;28;20423;-64
2022/12/20 21:39:19;;;;;;;7.88;4.82;;;9.70;99.90;;;;;;10458234;28;20435;-64
2022/12/20 21:44:20;;;;;;;6.75;4.50;;;9.70;99.90;;;;;;10452767;28;20159;-65
2022/12/20 21:49:21;;;;;;;8.40;4.82;;;9.70;99.90;;;;;;10456611;28;20472;-64
2022/12/20 21:54:22;;;;;;;12.80;6.35;;;9.70;99.90;;;;;;10456312;28;20048;-64
2022/12/20 21:59:23;;;;;;;12.32;5.35;;;9.70;99.90;;;;;;10459650;28;20023;-64
2022/12/20 22:04:24;;;;;;;12.82;5.60;;;9.70;99.90;;;;;;10473887;28;20031;-63
2022/12/20 22:09:25;;;;;;;11.70;5.50;;;9.70;99.90;;;;;;10468361;28;20446;-63
2022/12/20 22:14:25;;;;;;;11.90;6.15;;;9.70;99.90;;;;;;10457950;28;20027;-63
2022/12/20 22:19:26;;;;;;;10.27;5.05;;;9.70;99.90;;;;;;10455975;28;20620;-65
2022/12/20 22:24:27;;;;;;;8.98;5.15;;;9.60;99.90;;;;;;10458503;28;20036;-65
2022/12/20 22:29:27;;;;;;;9.13;4.57;;;9.60;99.90;;;;;;10457255;28;20017;-65
2022/12/20 22:34:28;;;;;;;9.15;5.38;;;9.60;99.90;;;;;;10476512;28;20036;-65
2022/12/20 22:39:29;;;;;;;8.98;5.43;;;9.60;99.90;;;;;;10473037;28;20047;-65
2022/12/20 22:44:29;;;;;;;11.35;6.13;;;9.60;99.90;;;;;;10471723;28;20017;-65
2022/12/20 22:49:30;;;;;;;9.50;5.10;;;9.60;99.90;;;;;;10457990;28;20040;-66
2022/12/20 22:54:30;;;;;;;9.32;5.28;;;9.70;99.90;;;;;;10450120;28;20447;-65
2022/12/20 22:59:33;;;;;;;10.80;5.28;;;9.60;99.90;;;;;;10457284;28;20016;-65
2022/12/20 23:04:34;;;;;;;9.38;5.25;;;9.60;99.90;;;;;;10468583;28;20058;-65
2022/12/20 23:09:34;;;;;;;9.77;5.45;;;9.60;99.90;;;;;;10449662;28;20496;-66
2022/12/20 23:25:15;;;;;;;;;;;9.60;99.90;;;;;;10475806;28;20603;-66
2022/12/20 23:30:18;;;;;;;9.55;5.18;;;9.50;99.90;;;;;;10486844;28;19931;-65
2022/12/20 23:35:20;;;;;;;7.40;4.22;;;9.50;99.90;;;;;;10486346;28;20264;-66
2022/12/20 23:40:20;;;;;;;10.38;5.43;;;9.50;99.90;;;;;;10479329;28;20406;-65
2022/12/20 23:45:21;;;;;;;10.77;5.18;;;9.50;99.90;;;;;;10477214;28;20034;-66
2022/12/20 23:50:22;;;;;;;9.93;4.80;;;9.50;99.90;;;;;;10479889;28;20029;-65
2022/12/20 23:55:22;;;;;;;9.10;5.20;;;9.50;99.90;;;;;;10478962;28;20476;-65
